Time;durP1;ratioP1;P1;durP2;ratioP2;P2;SDS_P1;SDS_P2;PMS_P1;PMS_P2;Temp;Humidity;BMP_temperature;BMP_pressure;BME280_temperature;BME280_humidity;BME280_pressure;Samples;Min_cycle;Max_cycle;Signal;HPM_P1;HPM_P2
2022/11/14 00:01:08;;;;;;;17.90;13.25;;;13.30;92.50;;;;;;5052959;28;20616;-78
2022/11/14 00:03:34;;;;;;;19.92;14.68;;;13.30;92.50;;;;;;5051976;28;20037;-77
2022/11/14 00:06:04;;;;;;;17.02;13.95;;;13.30;92.50;;;;;;5052669;28;20123;-78
2022/11/14 00:08:30;;;;;;;18.35;14.57;;;13.30;92.40;;;;;;5052441;28;20031;-76
2022/11/14 00:10:55;;;;;;;14.65;13.02;;;13.30;92.40;;;;;;5052577;28;20428;-76
2022/11/14 00:13:21;;;;;;;13.95;12.40;;;13.30;92.30;;;;;;5052370;28;20546;-76
2022/11/14 00:15:54;;;;;;;16.48;13.60;;;13.30;92.50;;;;;;5052578;28;20020;-76
2022/11/14 00:18:20;;;;;;;16.73;13.77;;;13.20;92.40;;;;;;5052032;28;20028;-77
2022/11/14 00:20:50;;;;;;;15.95;13.95;;;13.10;92.60;;;;;;5052536;28;20025;-77
2022/11/14 00:23:16;;;;;;;14.50;13.00;;;13.20;92.60;;;;;;5052444;28;20025;-79
2022/11/14 00:25:43;;;;;;;14.95;13.02;;;13.00;92.60;;;;;;5052304;28;20021;-78
2022/11/14 00:28:09;;;;;;;15.02;13.45;;;13.10;92.60;;;;;;5051071;28;20374;-77
2022/11/14 00:30:34;;;;;;;16.90;13.90;;;13.20;92.40;;;;;;5052377;28;20025;-77
2022/11/14 00:33:00;;;;;;;19.73;14.52;;;13.20;92.40;;;;;;5051955;28;20124;-78
2022/11/14 00:35:26;;;;;;;14.10;12.05;;;13.20;92.40;;;;;;5052000;28;20021;-79
2022/11/14 00:37:51;;;;;;;16.05;13.77;;;13.20;92.40;;;;;;5051659;28;20462;-78
2022/11/14 00:40:17;;;;;;;15.68;13.98;;;13.20;92.40;;;;;;5054185;28;20504;-79
2022/11/14 00:42:43;;;;;;;16.13;13.35;;;13.10;92.60;;;;;;5056148;28;20509;-76
2022/11/14 00:45:09;;;;;;;14.52;12.90;;;13.10;92.50;;;;;;5054596;28;20116;-79
2022/11/14 00:47:35;;;;;;;14.98;13.35;;;13.10;92.40;;;;;;5055720;28;20056;-78
2022/11/14 00:50:00;;;;;;;14.27;12.90;;;13.10;92.40;;;;;;5055799;28;20178;-78
2022/11/14 00:52:26;;;;;;;15.07;13.48;;;13.20;92.40;;;;;;5054230;28;20035;-79
2022/11/14 00:54:51;;;;;;;15.10;12.80;;;13.00;92.40;;;;;;5055803;28;20053;-78
2022/11/14 00:57:17;;;;;;;14.75;13.15;;;13.00;92.50;;;;;;5055730;28;20025;-79
2022/11/14 00:59:42;;;;;;;14.40;12.95;;;13.00;92.60;;;;;;5055181;28;20033;-77
2022/11/14 01:02:08;;;;;;;16.40;13.35;;;12.90;92.50;;;;;;5055465;28;20029;-77
2022/11/14 01:04:34;;;;;;;16.65;13.80;;;13.00;92.50;;;;;;5054035;28;20060;-78
2022/11/14 01:06:59;;;;;;;14.48;12.98;;;13.00;92.50;;;;;;5055491;28;20025;-76
2022/11/14 01:09:25;;;;;;;14.77;13.18;;;12.90;92.50;;;;;;5055502;28;20028;-77
2022/11/14 01:11:50;;;;;;;14.13;12.68;;;13.00;92.40;;;;;;5055318;28;20096;-76
2022/11/14 01:14:16;;;;;;;13.88;12.40;;;13.00;92.40;;;;;;5055181;28;20474;-76
2022/11/14 01:16:41;;;;;;;15.85;12.65;;;12.80;92.40;;;;;;5054385;28;20454;-77
2022/11/14 01:19:07;;;;;;;14.80;13.25;;;12.90;92.40;;;;;;5055261;28;20523;-77
2022/11/14 01:21:33;;;;;;;15.57;12.88;;;12.80;92.50;;;;;;5054848;28;20025;-77
2022/11/14 01:23:58;;;;;;;16.45;12.93;;;12.90;92.50;;;;;;5055427;28;20025;-77
2022/11/14 01:26:24;;;;;;;16.67;13.75;;;12.90;92.40;;;;;;5048798;28;20028;-76
2022/11/14 01:28:49;;;;;;;18.63;13.93;;;12.80;92.40;;;;;;5044555;28;20088;-76
2022/11/14 01:31:18;;;;;;;19.58;14.05;;;12.80;92.60;;;;;;5033654;28;20032;-75
2022/11/14 01:33:47;;;;;;;18.00;13.90;;;12.70;92.90;;;;;;5033534;28;20132;-76
2022/11/14 01:36:12;;;;;;;15.82;14.10;;;12.80;93.20;;;;;;5034925;28;20025;-76
2022/11/14 01:38:38;;;;;;;16.98;14.68;;;12.90;93.00;;;;;;5035102;28;20037;-77
2022/11/14 01:41:04;;;;;;;17.88;13.93;;;12.90;93.10;;;;;;5034253;28;20108;-76
2022/11/14 01:43:35;;;;;;;17.52;14.73;;;12.90;93.30;;;;;;5034635;28;20037;-77
2022/11/14 01:46:04;;;;;;;16.60;14.75;;;12.80;93.30;;;;;;5034946;28;20029;-76
2022/11/14 01:48:48;;;;;;;17.50;15.27;;;12.80;93.40;;;;;;5034848;28;20022;-76
2022/11/14 01:51:26;;;;;;;17.95;14.82;;;12.80;93.50;;;;;;5034498;28;20385;-77
2022/11/14 01:53:54;;;;;;;19.08;15.30;;;12.90;93.50;;;;;;5034560;28;20043;-76
2022/11/14 01:56:28;;;;;;;16.40;14.68;;;12.80;93.60;;;;;;5034608;28;20028;-77
2022/11/14 01:59:00;;;;;;;18.38;14.48;;;12.80;93.60;;;;;;5034547;28;20053;-75
2022/11/14 02:01:29;;;;;;;15.60;13.63;;;12.80;93.60;;;;;;5034672;28;20036;-76
2022/11/14 02:03:56;;;;;;;16.00;14.15;;;12.90;93.40;;;;;;5034420;28;20037;-76
2022/11/14 02:06:26;;;;;;;16.63;14.75;;;12.90;93.40;;;;;;5034560;28;20022;-75
2022/11/14 02:08:54;;;;;;;17.55;14.75;;;12.80;93.40;;;;;;5034478;28;20033;-78
2022/11/14 02:11:19;;;;;;;20.38;15.80;;;12.80;93.30;;;;;;5034298;28;20101;-76
2022/11/14 02:13:45;;;;;;;17.75;15.85;;;12.80;93.40;;;;;;5034078;28;20116;-75
2022/11/14 02:16:10;;;;;;;22.65;15.88;;;12.80;93.40;;;;;;5034103;28;20489;-76
2022/11/14 02:18:36;;;;;;;19.30;15.23;;;12.70;93.30;;;;;;5034276;28;20021;-75
2022/11/14 02:21:02;;;;;;;19.70;15.63;;;12.80;93.30;;;;;;5034266;28;20022;-76
2022/11/14 02:23:29;;;;;;;18.90;15.77;;;12.70;93.40;;;;;;5034470;28;20029;-78
2022/11/14 02:25:55;;;;;;;18.52;15.48;;;12.60;93.30;;;;;;5034207;28;20021;-76
2022/11/14 02:28:22;;;;;;;17.38;15.52;;;12.50;93.30;;;;;;5033900;28;20036;-77
2022/11/14 02:30:47;;;;;;;17.20;14.80;;;12.50;93.40;;;;;;5034685;28;20020;-77
2022/11/14 02:33:14;;;;;;;17.88;15.23;;;12.50;93.40;;;;;;5034454;28;20045;-77
2022/11/14 02:35:39;;;;;;;15.18;13.57;;;12.40;93.40;;;;;;5032893;28;20021;-77
2022/11/14 02:38:05;;;;;;;23.23;15.80;;;12.40;93.40;;;;;;5032794;28;20095;-77
2022/11/14 02:40:31;;;;;;;18.42;15.63;;;12.40;93.50;;;;;;5033791;28;20076;-76
2022/11/14 02:42:56;;;;;;;21.50;16.02;;;12.40;93.50;;;;;;5033254;28;20470;-77
2022/11/14 02:45:22;;;;;;;18.13;15.32;;;12.50;93.30;;;;;;5033989;28;20374;-78
2022/11/14 02:47:48;;;;;;;19.25;14.95;;;12.50;93.20;;;;;;5033682;28;20052;-79
2022/11/14 02:50:14;;;;;;;18.98;15.10;;;12.40;93.30;;;;;;5033671;28;20030;-77
2022/11/14 02:52:39;;;;;;;21.33;15.65;;;12.40;93.40;;;;;;5033383;28;20025;-78
2022/11/14 02:55:05;;;;;;;17.83;15.63;;;12.50;93.30;;;;;;5033722;28;20030;-77
2022/11/14 02:57:31;;;;;;;17.85;14.65;;;12.50;93.30;;;;;;5033165;28;20013;-78
2022/11/14 02:59:56;;;;;;;17.27;14.23;;;12.40;93.30;;;;;;5033518;28;20536;-78
2022/11/14 03:02:22;;;;;;;18.20;14.68;;;12.50;93.40;;;;;;5032546;28;20486;-78
2022/11/14 03:04:47;;;;;;;17.38;15.35;;;12.40;93.40;;;;;;5033231;28;20486;-77
2022/11/14 03:07:13;;;;;;;19.70;15.60;;;12.50;93.40;;;;;;5033787;28;20040;-76
2022/11/14 03:09:39;;;;;;;18.85;15.25;;;12.50;93.60;;;;;;5033376;28;20092;-78
2022/11/14 03:12:04;;;;;;;18.73;14.95;;;12.40;93.70;;;;;;5032582;28;20087;-75
2022/11/14 03:14:30;;;;;;;16.73;15.00;;;12.40;93.80;;;;;;5033598;28;20040;-77
2022/11/14 03:16:56;;;;;;;21.70;15.70;;;12.40;93.70;;;;;;5033002;28;20057;-75
2022/11/14 03:19:22;;;;;;;17.15;15.35;;;12.40;93.60;;;;;;5033211;28;20044;-76
2022/11/14 03:21:47;;;;;;;17.65;14.32;;;12.50;93.80;;;;;;5033148;28;20021;-75
2022/11/14 03:24:13;;;;;;;17.65;15.73;;;12.30;93.60;;;;;;5033122;28;20108;-76
2022/11/14 03:26:38;;;;;;;16.38;14.65;;;12.40;93.50;;;;;;5032657;28;20060;-75
2022/11/14 03:29:04;;;;;;;17.83;14.95;;;12.40;93.70;;;;;;5033207;28;20485;-75
2022/11/14 03:31:30;;;;;;;15.57;13.93;;;12.30;93.60;;;;;;5033024;28;20053;-76
2022/11/14 03:33:55;;;;;;;17.58;15.52;;;12.20;93.60;;;;;;5032939;28;20103;-75
2022/11/14 03:36:21;;;;;;;17.67;15.32;;;12.20;93.50;;;;;;5031915;28;20018;-78
2022/11/14 03:38:47;;;;;;;16.63;14.15;;;12.30;93.50;;;;;;5032783;28;20029;-75
2022/11/14 03:41:12;;;;;;;17.60;15.38;;;12.20;93.50;;;;;;5031907;28;20052;-75
2022/11/14 03:43:38;;;;;;;16.80;14.73;;;12.20;93.50;;;;;;5032906;28;20028;-75
2022/11/14 03:46:03;;;;;;;17.42;15.60;;;12.30;93.40;;;;;;5031799;28;20183;-77
2022/11/14 03:48:29;;;;;;;17.63;15.70;;;12.20;93.50;;;;;;5032702;28;20029;-77
2022/11/14 03:50:55;;;;;;;17.55;15.43;;;12.10;93.50;;;;;;5032850;28;20025;-77
2022/11/14 03:53:21;;;;;;;16.80;14.80;;;12.20;93.40;;;;;;5032653;28;20037;-75
2022/11/14 03:55:46;;;;;;;16.83;14.73;;;12.10;93.40;;;;;;5032461;28;20033;-76
2022/11/14 03:58:12;;;;;;;18.30;15.15;;;12.10;93.40;;;;;;5032703;28;20378;-77
2022/11/14 04:00:38;;;;;;;18.35;14.82;;;12.10;93.30;;;;;;5032697;28;20079;-78
2022/11/14 04:03:03;;;;;;;16.88;14.88;;;12.10;93.20;;;;;;5032235;28;20041;-78
2022/11/14 04:05:29;;;;;;;18.55;14.75;;;12.10;93.20;;;;;;5032786;28;20026;-78
2022/11/14 04:07:54;;;;;;;21.15;15.90;;;12.10;93.40;;;;;;5032664;28;20429;-77
2022/11/14 04:10:20;;;;;;;18.00;15.40;;;12.00;93.40;;;;;;5031023;28;20017;-78
2022/11/14 04:12:50;;;;;;;18.63;15.82;;;11.90;93.50;;;;;;5032433;28;20080;-78
2022/11/14 04:15:17;;;;;;;17.45;15.07;;;11.90;93.50;;;;;;5036029;28;20029;-77
2022/11/14 04:17:43;;;;;;;17.40;15.57;;;11.90;93.60;;;;;;5036049;28;20017;-78
2022/11/14 04:20:10;;;;;;;19.40;16.02;;;11.80;93.70;;;;;;5036561;28;20017;-78
2022/11/14 04:22:36;;;;;;;17.70;14.75;;;11.90;94.00;;;;;;5036470;28;20502;-78
2022/11/14 04:25:02;;;;;;;18.73;15.38;;;12.00;93.90;;;;;;5035991;28;20105;-78
2022/11/14 04:27:27;;;;;;;18.60;15.80;;;12.00;93.80;;;;;;5036406;28;20017;-77
2022/11/14 04:29:53;;;;;;;18.58;15.07;;;12.00;93.80;;;;;;5036211;28;20470;-78
2022/11/14 04:32:18;;;;;;;17.77;15.82;;;12.00;93.80;;;;;;5035939;28;20426;-77
2022/11/14 04:34:44;;;;;;;16.73;14.90;;;11.90;93.90;;;;;;5036129;28;20033;-77
2022/11/14 04:37:09;;;;;;;17.23;14.95;;;12.00;93.90;;;;;;5036287;28;20028;-79
2022/11/14 04:39:35;;;;;;;20.55;16.10;;;12.00;93.80;;;;;;5035670;28;20029;-76
2022/11/14 04:42:00;;;;;;;16.85;15.00;;;11.90;93.80;;;;;;5035953;28;20032;-78
2022/11/14 04:44:26;;;;;;;20.15;14.82;;;11.90;93.80;;;;;;5036016;28;20075;-78
2022/11/14 04:46:52;;;;;;;17.67;14.63;;;12.00;93.90;;;;;;5036233;28;20462;-78
2022/11/14 04:49:17;;;;;;;20.15;15.20;;;11.90;93.90;;;;;;5035747;28;20022;-78
2022/11/14 04:51:43;;;;;;;17.42;15.35;;;11.90;93.90;;;;;;5035747;28;20022;-77
2022/11/14 04:54:08;;;;;;;18.23;16.17;;;11.90;93.90;;;;;;5035449;28;20047;-78
2022/11/14 04:56:34;;;;;;;17.30;15.32;;;11.80;94.00;;;;;;5036108;28;20022;-76
2022/11/14 04:58:59;;;;;;;18.17;15.43;;;11.80;94.20;;;;;;5034477;28;20533;-77
2022/11/14 05:01:25;;;;;;;19.13;15.40;;;11.90;94.20;;;;;;5035712;28;20033;-75
2022/11/14 05:03:50;;;;;;;17.48;15.60;;;11.90;94.10;;;;;;5035462;28;20034;-74
2022/11/14 05:06:16;;;;;;;18.63;15.88;;;11.80;94.20;;;;;;5035370;28;20053;-76
2022/11/14 05:08:41;;;;;;;20.65;16.77;;;11.70;94.40;;;;;;5034894;28;20021;-75
2022/11/14 05:11:13;;;;;;;17.15;15.25;;;11.90;94.30;;;;;;5035564;28;20022;-76
2022/11/14 05:13:38;;;;;;;17.13;15.17;;;11.80;94.40;;;;;;5035618;28;20037;-75
2022/11/14 05:16:04;;;;;;;18.33;16.30;;;11.90;94.40;;;;;;5035686;28;20032;-75
2022/11/14 05:18:30;;;;;;;20.02;15.93;;;11.80;94.50;;;;;;5040583;28;20024;-75
2022/11/14 05:20:58;;;;;;;20.40;17.00;;;11.90;94.40;;;;;;5032188;28;20498;-76
2022/11/14 05:23:23;;;;;;;20.13;16.20;;;11.80;94.40;;;;;;5033191;28;20106;-75
2022/11/14 05:26:07;;;;;;;19.52;16.13;;;11.80;94.50;;;;;;5032615;28;20486;-75
2022/11/14 05:28:33;;;;;;;19.02;15.90;;;11.80;94.50;;;;;;5035121;28;20037;-74
2022/11/14 05:31:02;;;;;;;20.08;16.25;;;11.80;94.40;;;;;;5035007;28;20028;-75
2022/11/14 05:33:28;;;;;;;18.70;16.10;;;11.70;94.40;;;;;;5035197;28;20041;-74
2022/11/14 05:35:54;;;;;;;20.85;17.95;;;11.90;94.40;;;;;;5034457;28;20089;-75
2022/11/14 05:38:19;;;;;;;18.73;15.80;;;11.90;94.30;;;;;;5034843;28;20064;-74
2022/11/14 05:40:45;;;;;;;18.00;16.10;;;11.80;94.20;;;;;;5050398;28;20170;-74
2022/11/14 05:43:10;;;;;;;18.27;15.95;;;11.80;94.30;;;;;;5035424;28;20033;-74
2022/11/14 05:45:36;;;;;;;20.38;16.27;;;11.60;94.30;;;;;;5035096;28;20021;-74
2022/11/14 05:48:02;;;;;;;18.58;15.85;;;11.70;94.40;;;;;;5035068;28;20021;-74
2022/11/14 05:50:27;;;;;;;17.42;15.68;;;11.60;94.30;;;;;;5034517;28;20025;-74
2022/11/14 05:52:54;;;;;;;19.50;16.23;;;11.60;94.40;;;;;;5035358;28;20045;-74
2022/11/14 05:55:20;;;;;;;21.25;15.73;;;11.60;94.40;;;;;;5037484;28;20074;-76
2022/11/14 05:57:45;;;;;;;18.38;15.77;;;11.60;94.50;;;;;;5054263;28;20017;-75
2022/11/14 06:00:11;;;;;;;18.40;16.52;;;11.50;94.60;;;;;;5053099;28;20420;-73
2022/11/14 06:02:37;;;;;;;17.65;15.75;;;11.50;94.70;;;;;;5045277;28;20057;-77
2022/11/14 06:05:03;;;;;;;19.30;16.30;;;11.50;94.60;;;;;;5033747;28;20037;-77
2022/11/14 06:07:28;;;;;;;79.65;24.98;;;11.50;94.60;;;;;;5033346;28;20033;-78
2022/11/14 06:09:54;;;;;;;18.35;14.27;;;11.60;94.10;;;;;;5035047;28;20026;-78
2022/11/14 06:12:19;;;;;;;18.75;14.45;;;11.60;92.80;;;;;;5050250;28;20024;-76
2022/11/14 06:14:45;;;;;;;17.42;14.40;;;11.20;95.00;;;;;;5050768;28;20390;-77
2022/11/14 06:17:10;;;;;;;16.50;14.35;;;11.00;95.30;;;;;;5054085;28;20386;-76
2022/11/14 06:19:36;;;;;;;15.23;13.63;;;10.80;95.70;;;;;;5044007;28;20036;-76
2022/11/14 06:22:02;;;;;;;15.65;13.95;;;10.60;96.00;;;;;;5044185;28;20025;-77
2022/11/14 06:24:27;;;;;;;17.88;14.35;;;10.60;96.10;;;;;;5053893;28;20130;-78
2022/11/14 06:26:53;;;;;;;16.33;14.52;;;10.60;96.10;;;;;;5053779;28;20024;-77
2022/11/14 06:29:18;;;;;;;14.75;13.05;;;10.50;96.10;;;;;;5053652;28;20494;-77
2022/11/14 06:31:44;;;;;;;14.43;12.85;;;10.50;96.20;;;;;;5055285;28;20497;-76
2022/11/14 06:34:10;;;;;;;15.15;13.43;;;10.40;96.30;;;;;;5059078;28;20397;-78
2022/11/14 06:36:36;;;;;;;17.50;15.70;;;10.40;96.30;;;;;;5054854;28;20021;-78
2022/11/14 06:39:01;;;;;;;18.95;15.55;;;10.30;96.40;;;;;;5053647;28;20071;-79
2022/11/14 06:41:27;;;;;;;15.38;13.75;;;10.30;96.60;;;;;;5053111;28;20021;-79
2022/11/14 06:43:53;;;;;;;18.60;15.10;;;10.20;96.50;;;;;;5057525;28;20027;-78
2022/11/14 06:46:20;;;;;;;16.75;14.95;;;10.30;96.60;;;;;;5049288;28;20025;-79
2022/11/14 06:48:47;;;;;;;17.90;13.25;;;10.20;96.50;;;;;;5054713;28;20025;-78
2022/11/14 06:51:14;;;;;;;14.68;12.88;;;10.20;96.50;;;;;;5067588;28;20028;-78
2022/11/14 06:53:41;;;;;;;15.95;14.30;;;10.20;96.50;;;;;;5071298;28;20036;-78
2022/11/14 06:56:12;;;;;;;16.08;13.25;;;10.20;96.50;;;;;;5053034;28;20021;-77
2022/11/14 06:58:46;;;;;;;16.85;13.10;;;10.20;96.50;;;;;;5035449;28;20032;-80
2022/11/14 07:01:14;;;;;;;17.10;13.68;;;10.20;96.50;;;;;;5050178;28;20551;-79
2022/11/14 07:03:41;;;;;;;16.77;13.68;;;10.20;96.50;;;;;;5040499;28;21530;-78
2022/11/14 07:06:10;;;;;;;15.32;13.32;;;10.20;96.50;;;;;;5041862;28;20033;-79
2022/11/14 07:08:35;;;;;;;18.33;13.70;;;10.20;96.40;;;;;;5031256;28;20029;-79
2022/11/14 07:11:06;;;;;;;18.67;13.43;;;10.20;96.50;;;;;;5059940;28;20022;-80
2022/11/14 07:13:33;;;;;;;16.83;14.02;;;10.70;96.10;;;;;;5063264;28;20036;-79
2022/11/14 07:15:59;;;;;;;14.80;13.20;;;10.90;95.30;;;;;;5046661;28;20112;-79
2022/11/14 07:18:24;;;;;;;21.77;14.70;;;10.70;95.70;;;;;;5034225;28;20029;-77
2022/11/14 07:20:56;;;;;;;14.32;12.75;;;10.60;95.90;;;;;;5051784;28;20020;-78
2022/11/14 07:23:22;;;;;;;16.65;12.68;;;10.70;95.60;;;;;;5051830;28;20016;-78
2022/11/14 07:25:48;;;;;;;15.50;12.73;;;10.90;95.60;;;;;;5051995;28;20021;-78
2022/11/14 07:28:13;;;;;;;16.05;11.05;;;11.00;95.30;;;;;;5051052;28;20085;-78
2022/11/14 07:30:40;;;;;;;21.48;10.38;;;11.50;97.30;;;;;;5051482;28;20021;-80
2022/11/14 07:33:06;;;;;;;17.90;11.38;;;12.20;96.60;;;;;;5050554;28;20053;-83
2022/11/14 07:35:32;;;;;;;14.85;10.30;;;12.60;96.10;;;;;;5047893;28;20017;-79
2022/11/14 07:38:02;;;;;;;18.60;10.77;;;12.80;95.80;;;;;;5051060;28;20555;-78
2022/11/14 07:40:28;;;;;;;15.52;10.65;;;13.00;95.90;;;;;;5051240;28;20039;-78
2022/11/14 07:43:01;;;;;;;15.52;10.05;;;13.20;95.60;;;;;;5051393;28;20100;-79
2022/11/14 07:45:28;;;;;;;15.90;9.70;;;13.30;95.40;;;;;;5052635;28;20099;-79
2022/11/14 07:48:00;;;;;;;16.77;10.00;;;13.30;95.30;;;;;;5052858;28;20021;-79
2022/11/14 07:50:27;;;;;;;12.45;9.40;;;13.40;95.30;;;;;;5059076;28;20013;-79
2022/11/14 07:52:54;;;;;;;12.88;9.57;;;13.50;95.20;;;;;;5055744;28;20029;-78
2022/11/14 07:55:20;;;;;;;13.45;9.43;;;13.50;95.20;;;;;;5056513;28;20381;-78
2022/11/14 07:57:46;;;;;;;16.67;9.30;;;13.50;95.30;;;;;;5058494;28;20465;-78
2022/11/14 08:00:13;;;;;;;19.40;10.32;;;13.70;96.00;;;;;;5058199;28;20033;-74
2022/11/14 08:02:38;;;;;;;16.98;12.55;;;13.70;94.70;;;;;;5058425;28;20029;-75
2022/11/14 08:05:04;;;;;;;13.18;11.07;;;13.70;93.80;;;;;;5056599;28;20386;-75
2022/11/14 08:07:30;;;;;;;14.45;11.65;;;13.70;93.20;;;;;;5056866;28;20182;-76
2022/11/14 08:09:55;;;;;;;18.75;11.88;;;13.70;93.00;;;;;;5064160;28;20529;-78
2022/11/14 08:12:21;;;;;;;26.48;12.43;;;13.60;92.60;;;;;;5078093;28;20028;-78
2022/11/14 08:14:46;;;;;;;14.50;10.85;;;13.40;92.50;;;;;;5058669;28;20063;-78
2022/11/14 08:17:12;;;;;;;18.75;11.57;;;13.30;92.60;;;;;;5054125;28;20036;-82
2022/11/14 08:19:38;;;;;;;15.90;11.07;;;13.30;92.60;;;;;;5058609;28;20016;-80
2022/11/14 08:22:03;;;;;;;15.68;10.52;;;13.30;92.70;;;;;;5058863;28;20156;-78
2022/11/14 08:24:29;;;;;;;14.73;10.90;;;13.20;92.90;;;;;;5059070;28;20378;-79
2022/11/14 08:26:54;;;;;;;14.68;10.18;;;13.40;93.00;;;;;;5059261;28;20021;-77
2022/11/14 08:29:20;;;;;;;18.75;10.05;;;13.30;92.90;;;;;;5057737;28;20064;-77
2022/11/14 08:31:46;;;;;;;13.60;10.23;;;13.30;93.20;;;;;;5058713;28;20040;-78
2022/11/14 08:34:12;;;;;;;12.77;9.65;;;13.50;93.30;;;;;;5076999;28;20079;-78
2022/11/14 08:36:38;;;;;;;10.75;8.93;;;13.50;93.20;;;;;;5079238;28;20468;-78
2022/11/14 08:39:04;;;;;;;13.98;8.70;;;13.40;93.00;;;;;;5064091;28;20072;-78
2022/11/14 08:41:29;;;;;;;16.08;8.88;;;13.40;93.20;;;;;;5059112;28;20021;-78
2022/11/14 08:43:55;;;;;;;18.27;10.05;;;13.40;93.20;;;;;;5058679;28;20025;-76
2022/11/14 08:46:20;;;;;;;11.52;9.32;;;13.50;93.40;;;;;;5055907;28;20378;-76
2022/11/14 08:48:46;;;;;;;16.52;10.32;;;13.30;93.10;;;;;;5049808;28;20427;-76
2022/11/14 08:51:12;;;;;;;24.05;10.70;;;13.20;93.50;;;;;;5038488;28;20022;-78
2022/11/14 08:53:37;;;;;;;13.88;9.80;;;13.50;94.30;;;;;;5038785;28;20037;-79
2022/11/14 08:56:03;;;;;;;14.60;9.35;;;13.60;93.70;;;;;;5038744;28;20057;-78
2022/11/14 08:58:32;;;;;;;17.83;11.27;;;13.60;93.40;;;;;;5039783;28;20430;-77
2022/11/14 09:00:59;;;;;;;13.77;10.40;;;13.70;93.00;;;;;;5035954;28;20018;-79
2022/11/14 09:03:25;;;;;;;16.98;10.55;;;13.80;92.70;;;;;;5035932;28;20041;-78
2022/11/14 09:05:52;;;;;;;21.85;12.13;;;13.70;92.60;;;;;;5036805;28;20036;-78
2022/11/14 09:08:17;;;;;;;19.35;10.20;;;13.80;92.50;;;;;;5035860;28;20100;-79
2022/11/14 09:10:44;;;;;;;12.32;10.00;;;13.90;92.20;;;;;;5035941;28;20101;-78
2022/11/14 09:13:09;;;;;;;11.38;8.65;;;14.00;92.10;;;;;;5035584;28;20041;-79
2022/11/14 09:15:35;;;;;;;13.82;9.15;;;14.10;92.10;;;;;;5035437;28;20044;-79
2022/11/14 09:18:01;;;;;;;16.55;8.77;;;14.10;92.00;;;;;;5036355;28;20108;-78
2022/11/14 09:20:29;;;;;;;10.35;9.25;;;14.10;92.00;;;;;;5052238;28;20017;-78
2022/11/14 09:22:57;;;;;;;14.63;10.27;;;14.10;91.90;;;;;;5035252;28;20108;-78
2022/11/14 09:25:25;;;;;;;15.18;10.10;;;14.20;91.80;;;;;;5036245;28;20017;-78
2022/11/14 09:27:51;;;;;;;14.27;9.68;;;14.30;91.60;;;;;;5036081;28;20045;-78
2022/11/14 09:30:16;;;;;;;16.67;10.02;;;14.30;91.50;;;;;;5036248;28;20029;-78
2022/11/14 09:32:42;;;;;;;12.40;9.15;;;14.30;91.50;;;;;;5036588;28;20040;-78
2022/11/14 09:35:07;;;;;;;13.98;9.90;;;14.30;91.70;;;;;;5036384;28;20083;-78
2022/11/14 09:37:33;;;;;;;12.45;9.00;;;14.30;91.70;;;;;;5036680;28;20022;-78
2022/11/14 09:39:59;;;;;;;15.30;11.80;;;14.40;91.50;;;;;;5036375;28;20018;-78
2022/11/14 09:42:46;;;;;;;15.00;11.25;;;14.40;91.40;;;;;;5044682;28;20028;-79
2022/11/14 09:45:15;;;;;;;16.20;12.95;;;14.40;91.30;;;;;;5056109;28;20032;-79
2022/11/14 09:47:51;;;;;;;20.38;10.65;;;14.50;91.30;;;;;;5055984;28;20100;-78
2022/11/14 09:50:32;;;;;;;12.35;9.63;;;14.60;91.30;;;;;;5053601;28;20052;-79
2022/11/14 09:53:03;;;;;;;18.05;12.05;;;14.50;91.40;;;;;;5067195;28;20033;-77
2022/11/14 09:55:31;;;;;;;14.10;11.38;;;14.50;91.40;;;;;;5083109;28;20478;-77
2022/11/14 09:57:56;;;;;;;16.75;11.57;;;14.40;91.40;;;;;;5083963;28;20365;-78
2022/11/14 10:00:24;;;;;;;15.93;11.15;;;14.40;91.60;;;;;;5083025;28;20028;-77
2022/11/14 10:02:58;;;;;;;18.17;9.98;;;14.30;91.50;;;;;;5078588;28;20033;-77
2022/11/14 10:05:53;;;;;;;15.20;10.55;;;14.40;92.10;;;;;;5070667;28;20056;-76
2022/11/14 10:08:49;;;;;;;14.70;9.32;;;14.40;92.10;;;;;;5052442;28;20028;-77
2022/11/14 10:11:45;;;;;;;15.80;7.55;;;14.50;92.40;;;;;;5074555;28;20028;-78
2022/11/14 10:14:11;;;;;;;16.58;8.55;;;14.60;92.70;;;;;;5074250;28;20036;-78
2022/11/14 10:16:46;;;;;;;19.30;10.75;;;14.60;92.80;;;;;;5074313;28;20058;-78
2022/11/14 10:19:14;;;;;;;16.85;9.25;;;14.70;93.30;;;;;;5061826;28;20115;-77
2022/11/14 10:22:04;;;;;;;19.98;11.00;;;14.80;94.40;;;;;;5052070;28;20462;-77
2022/11/14 10:24:39;;;;;;;33.08;12.13;;;14.80;95.00;;;;;;5052350;28;20048;-78
2022/11/14 10:27:18;;;;;;;19.92;13.30;;;14.90;95.90;;;;;;5051431;28;20025;-77
2022/11/14 10:29:59;;;;;;;26.05;12.27;;;14.80;96.20;;;;;;5054346;28;20096;-77
2022/11/14 10:32:34;;;;;;;23.30;13.52;;;14.90;97.10;;;;;;5051877;28;20470;-77
2022/11/14 10:35:06;;;;;;;26.42;12.48;;;14.80;96.30;;;;;;5052658;28;20047;-77
2022/11/14 10:37:57;;;;;;;22.85;12.15;;;14.80;96.50;;;;;;5053823;28;20025;-76
2022/11/14 10:40:44;;;;;;;18.60;13.13;;;14.80;95.80;;;;;;5053238;28;20036;-77
2022/11/14 10:43:22;;;;;;;18.92;11.35;;;14.80;94.40;;;;;;5051766;28;20021;-77
2022/11/14 10:46:00;;;;;;;21.05;11.55;;;14.70;94.60;;;;;;5051938;28;20479;-77
2022/11/14 10:48:35;;;;;;;19.65;12.82;;;14.70;94.10;;;;;;5046640;28;20086;-80
2022/11/14 10:51:33;;;;;;;18.80;12.68;;;14.60;93.50;;;;;;5053156;28;20021;-79
2022/11/14 10:54:18;;;;;;;18.70;12.70;;;14.50;93.10;;;;;;5051198;28;20114;-77
2022/11/14 10:56:48;;;;;;;16.50;10.65;;;14.50;92.90;;;;;;5051532;28;20051;-77
2022/11/14 10:59:14;;;;;;;17.63;12.18;;;14.50;93.40;;;;;;5050036;28;20382;-77
2022/11/14 11:01:43;;;;;;;12.38;9.43;;;14.50;93.50;;;;;;5053146;28;20028;-77
2022/11/14 11:04:24;;;;;;;18.38;12.05;;;14.60;93.40;;;;;;5053308;28;20116;-77
2022/11/14 11:06:56;;;;;;;16.77;12.73;;;14.60;92.70;;;;;;5053219;28;20497;-77
2022/11/14 11:12:15;;;;;;;17.92;10.27;;;14.50;92.70;;;;;;5053299;28;20064;-77
2022/11/14 11:14:41;;;;;;;16.75;12.23;;;14.60;92.90;;;;;;5053277;28;20033;-77
2022/11/14 11:17:14;;;;;;;18.73;13.07;;;14.70;92.70;;;;;;5053094;28;20021;-77
2022/11/14 11:19:43;;;;;;;19.95;11.52;;;14.70;92.50;;;;;;5050579;28;20485;-77
2022/11/14 11:22:33;;;;;;;19.60;10.80;;;14.80;92.80;;;;;;5056182;28;20366;-75
2022/11/14 11:24:59;;;;;;;16.52;13.25;;;14.80;92.90;;;;;;5055877;28;20025;-76
2022/11/14 11:27:26;;;;;;;14.48;11.02;;;14.80;92.50;;;;;;5049022;28;20496;-78
2022/11/14 11:30:17;;;;;;;15.10;11.57;;;14.80;92.50;;;;;;5071982;28;20017;-78
2022/11/14 11:32:43;;;;;;;18.20;12.25;;;14.80;92.30;;;;;;5071913;28;20497;-78
2022/11/14 11:35:13;;;;;;;17.23;10.35;;;14.80;92.00;;;;;;5072566;28;20099;-77
2022/11/14 11:38:01;;;;;;;17.95;11.40;;;14.90;92.10;;;;;;5064970;28;20048;-78
2022/11/14 11:40:29;;;;;;;13.43;10.73;;;14.80;92.30;;;;;;5051270;28;20029;-78
2022/11/14 11:43:05;;;;;;;13.23;10.68;;;14.70;92.10;;;;;;5051479;28;20694;-79
2022/11/14 11:45:33;;;;;;;19.30;10.82;;;14.90;91.90;;;;;;5052541;28;20032;-79
2022/11/14 11:48:12;;;;;;;19.55;11.05;;;15.00;92.10;;;;;;5052635;28;20024;-78
2022/11/14 11:50:39;;;;;;;15.38;11.10;;;15.00;92.60;;;;;;5052845;28;20055;-78
2022/11/14 11:53:30;;;;;;;17.50;11.70;;;15.00;92.90;;;;;;5050727;28;20037;-77
2022/11/14 11:56:03;;;;;;;20.75;11.52;;;15.00;92.50;;;;;;5026000;28;20072;-79
2022/11/14 11:58:34;;;;;;;14.10;10.10;;;15.10;92.40;;;;;;5040837;28;20029;-76
2022/11/14 12:01:00;;;;;;;14.15;10.63;;;15.20;92.50;;;;;;5051861;28;20471;-77
2022/11/14 12:03:26;;;;;;;16.52;9.35;;;15.30;92.60;;;;;;5051972;28;20045;-77
2022/11/14 12:06:11;;;;;;;13.95;9.10;;;15.30;92.90;;;;;;5046335;28;20544;-77
2022/11/14 12:08:46;;;;;;;15.80;10.23;;;15.30;93.50;;;;;;5071979;28;20021;-81
2022/11/14 12:11:17;;;;;;;15.07;10.77;;;15.40;93.30;;;;;;5072143;28;20092;-81
2022/11/14 12:14:01;;;;;;;14.43;8.60;;;15.40;93.60;;;;;;5071760;28;20073;-80
2022/11/14 12:16:45;;;;;;;13.50;8.95;;;15.40;93.90;;;;;;5060066;28;20100;-79
2022/11/14 12:19:17;;;;;;;17.55;9.93;;;15.50;94.30;;;;;;5051627;28;20096;-81
2022/11/14 12:22:00;;;;;;;11.07;7.50;;;15.40;94.00;;;;;;5051836;28;20025;-78
2022/11/14 12:24:38;;;;;;;14.23;8.27;;;15.50;94.90;;;;;;5049425;28;20105;-78
2022/11/14 12:27:30;;;;;;;11.93;8.40;;;15.60;95.10;;;;;;5051664;28;20028;-78
2022/11/14 12:30:16;;;;;;;9.52;7.43;;;15.60;95.10;;;;;;5056351;28;20025;-79
2022/11/14 12:33:07;;;;;;;12.13;6.72;;;15.80;95.10;;;;;;5071779;28;20108;-81
2022/11/14 12:35:35;;;;;;;9.85;7.57;;;15.70;95.10;;;;;;5073684;28;20031;-79
2022/11/14 12:38:05;;;;;;;12.68;6.97;;;15.80;95.30;;;;;;5061638;28;20025;-82